Time;durP1;ratioP1;P1;durP2;ratioP2;P2;SDS_P1;SDS_P2;PMS_P1;PMS_P2;Temp;Humidity;BMP_temperature;BMP_pressure;BME280_temperature;BME280_humidity;BME280_pressure;Samples;Min_cycle;Max_cycle;Signal;HPM_P1;HPM_P2
2021/08/17 05:01:17;;;;;;;3.13;2.83;;;;;;;28.72;38.33;94510.88;5578662;23;20117;-73
2021/08/17 05:03:42;;;;;;;4.05;2.90;;;;;;;28.17;38.32;94501.16;4922308;29;20035;-74
2021/08/17 05:06:08;;;;;;;5.43;3.25;;;;;;;28.78;37.76;94504.38;4950377;29;20054;-75
2021/08/17 05:08:33;;;;;;;5.35;3.00;;;;;;;29.43;36.59;94506.06;4948481;29;20019;-74
2021/08/17 05:10:59;;;;;;;5.75;3.13;;;;;;;29.71;36.03;94508.34;4949584;29;20023;-74
2021/08/17 05:13:24;;;;;;;3.17;2.95;;;;;;;30.06;35.18;94504.09;4948623;28;20023;-74
2021/08/17 05:15:50;;;;;;;4.00;2.65;;;;;;;29.88;35.21;94501.63;4949086;28;20038;-74
2021/08/17 05:18:15;;;;;;;3.67;2.88;;;;;;;29.90;35.53;94494.06;4949651;29;20404;-75
2021/08/17 05:20:41;;;;;;;3.90;2.97;;;;;;;29.98;35.45;94496.81;4929155;29;20102;-74
2021/08/17 05:23:06;;;;;;;3.55;2.95;;;;;;;30.79;34.52;94500.19;4929925;29;20034;-74
2021/08/17 05:25:32;;;;;;;5.43;3.10;;;;;;;31.59;33.39;94497.16;4920829;29;20035;-74
2021/08/17 05:27:57;;;;;;;5.03;3.20;;;;;;;31.86;33.13;94494.16;4927538;29;20042;-76
2021/08/17 05:30:22;;;;;;;4.07;3.78;;;;;;;31.85;32.51;94500.63;4928860;29;20032;-76
2021/08/17 05:32:49;;;;;;;5.47;3.65;;;;;;;32.40;30.76;94494.59;4929314;29;20395;-76
2021/08/17 05:35:14;;;;;;;3.15;2.92;;;;;;;32.20;31.08;94495.28;4929848;29;20054;-76
2021/08/17 05:37:40;;;;;;;3.25;2.95;;;;;;;32.83;30.65;94503.38;4920150;29;20484;-77
2021/08/17 05:40:06;;;;;;;3.20;2.90;;;;;;;33.34;30.12;94505.06;4949215;29;20023;-77
2021/08/17 05:42:31;;;;;;;3.47;3.17;;;;;;;32.27;30.86;94495.59;4921658;29;20397;-76
2021/08/17 05:44:57;;;;;;;3.45;3.00;;;;;;;33.17;30.15;94496.31;4929936;29;20024;-77
2021/08/17 05:47:22;;;;;;;4.28;3.03;;;;;;;33.12;29.09;94493.81;4926978;29;20039;-79
2021/08/17 05:49:48;;;;;;;2.67;2.47;;;;;;;34.93;28.11;94497.41;4930403;29;20123;-77
2021/08/17 05:52:14;;;;;;;3.03;2.83;;;;;;;34.56;27.57;94492.28;4926889;29;20134;-76
2021/08/17 05:54:39;;;;;;;2.80;2.45;;;;;;;34.68;28.26;94495.81;4924150;29;20025;-77
2021/08/17 05:57:05;;;;;;;3.58;2.63;;;;;;;34.16;27.94;94500.13;4925240;29;20078;-77
2021/08/17 05:59:31;;;;;;;3.50;3.20;;;;;;;34.14;27.11;94494.25;4911236;29;20059;-78
2021/08/17 06:01:57;;;;;;;3.17;2.88;;;;;;;34.36;28.14;94492.00;4927179;29;20327;-76
2021/08/17 06:04:23;;;;;;;3.88;3.47;;;;;;;33.55;29.73;94493.56;4928327;29;20042;-77
2021/08/17 06:06:48;;;;;;;3.30;3.00;;;;;;;29.44;34.70;94499.63;4929483;29;20433;-76
2021/08/17 06:09:19;;;;;;;5.57;3.20;;;;;;;29.74;35.03;94494.41;4927920;29;20028;-77
2021/08/17 06:11:45;;;;;;;3.42;3.15;;;;;;;30.58;33.57;94489.22;4913027;29;20094;-79
2021/08/17 06:14:10;;;;;;;4.55;3.80;;;;;;;31.29;32.73;94489.97;4927893;29;20039;-76
2021/08/17 06:16:36;;;;;;;3.75;2.90;;;;;;;30.46;33.04;94498.91;4929142;29;20039;-78
2021/08/17 06:19:01;;;;;;;3.85;3.03;;;;;;;32.42;31.90;94497.78;4929889;29;20024;-77
2021/08/17 06:21:27;;;;;;;4.03;2.70;;;;;;;37.16;25.19;94493.13;4928272;29;20092;-77
2021/08/17 06:23:52;;;;;;;3.53;2.60;;;;;;;38.04;24.17;94488.16;4930560;29;20023;-76
2021/08/17 06:26:18;;;;;;;4.72;2.80;;;;;;;36.62;25.16;94484.78;4929084;29;20071;-74
2021/08/17 06:28:44;;;;;;;5.00;3.03;;;;;;;37.85;23.72;94441.00;4935655;29;20043;-75
2021/08/17 06:31:10;;;;;;;3.22;2.92;;;;;;;38.71;23.41;94481.34;4926779;29;20039;-76
2021/08/17 06:33:35;;;;;;;3.20;2.95;;;;;;;37.09;24.83;94475.97;4933590;29;20065;-75
2021/08/17 06:36:01;;;;;;;4.43;2.78;;;;;;;37.73;24.16;94475.53;4931431;29;20031;-76
2021/08/17 06:38:26;;;;;;;4.68;2.80;;;;;;;36.56;25.18;94474.59;4929323;29;20036;-76
2021/08/17 06:40:52;;;;;;;4.82;2.83;;;;;;;36.27;25.94;94481.13;4928907;29;20028;-76
2021/08/17 06:43:17;;;;;;;4.18;2.80;;;;;;;36.26;25.23;94474.13;4925938;29;20032;-77
2021/08/17 06:45:43;;;;;;;3.05;2.50;;;;;;;33.12;29.41;94483.06;4939855;29;20035;-78
2021/08/17 06:48:08;;;;;;;4.95;2.70;;;;;;;30.30;33.02;94474.41;4928480;29;20428;-78
2021/08/17 06:50:34;;;;;;;3.10;2.85;;;;;;;30.58;33.01;94481.19;4932670;29;20043;-78
2021/08/17 06:52:59;;;;;;;6.65;3.10;;;;;;;30.93;31.98;94474.09;4931540;29;20042;-77
2021/08/17 06:55:26;;;;;;;2.90;2.70;;;;;;;31.66;31.29;94476.03;4932370;29;20024;-78
2021/08/17 06:57:51;;;;;;;3.88;2.90;;;;;;;31.57;32.54;94477.91;4923114;29;20043;-77
2021/08/17 07:00:17;;;;;;;5.07;2.70;;;;;;;31.18;31.96;94472.59;4912404;29;20032;-75
2021/08/17 07:02:42;;;;;;;2.88;2.55;;;;;;;31.38;32.28;94474.72;4914809;29;20414;-77
2021/08/17 07:05:08;;;;;;;4.10;2.60;;;;;;;33.54;29.47;94471.28;4912498;29;20411;-78
2021/08/17 07:07:34;;;;;;;4.20;2.90;;;;;;;33.63;28.15;94472.03;4915002;29;20031;-78
2021/08/17 07:09:59;;;;;;;12.68;3.45;;;;;;;31.11;31.97;94469.63;4915279;29;20028;-76
2021/08/17 07:12:25;;;;;;;3.20;2.88;;;;;;;31.16;31.31;94469.47;4931477;29;20039;-76
2021/08/17 07:14:50;;;;;;;6.15;3.00;;;;;;;29.99;33.43;94471.66;4932478;29;20060;-78
2021/08/17 07:17:17;;;;;;;4.63;2.70;;;;;;;30.83;32.96;94464.44;4931532;29;20069;-75
2021/08/17 07:19:42;;;;;;;3.28;2.67;;;;;;;31.29;32.51;94466.66;4933513;29;20059;-76
2021/08/17 07:22:08;;;;;;;4.38;3.40;;;;;;;29.04;34.86;94467.31;4929229;29;20450;-79
2021/08/17 07:24:33;;;;;;;4.85;2.95;;;;;;;30.47;33.50;94465.72;4933056;29;20034;-77
2021/08/17 07:26:58;;;;;;;5.10;2.70;;;;;;;31.04;32.51;94464.72;4934701;29;20044;-76
2021/08/17 07:29:24;;;;;;;2.65;2.45;;;;;;;31.04;32.66;94450.53;4932204;29;20028;-79
2021/08/17 07:31:49;;;;;;;4.82;3.00;;;;;;;30.85;33.88;94456.13;4936938;29;20066;-76
2021/08/17 07:34:15;;;;;;;3.17;2.88;;;;;;;30.73;31.93;94455.91;4942681;29;20048;-80
2021/08/17 07:36:41;;;;;;;4.40;2.90;;;;;;;31.10;32.29;94451.97;4942697;29;20035;-75
2021/08/17 07:39:09;;;;;;;4.22;3.10;;;;;;;31.22;31.62;94457.50;4932586;29;20032;-76
2021/08/17 07:41:34;;;;;;;4.07;2.88;;;;;;;31.51;32.47;94454.28;4936984;29;20591;-76
2021/08/17 07:44:00;;;;;;;4.80;3.53;;;;;;;30.09;33.54;94457.28;4920102;29;20058;-77
2021/08/17 07:46:26;;;;;;;4.72;2.70;;;;;;;30.66;33.35;94456.38;4939898;29;20023;-78
2021/08/17 07:48:51;;;;;;;5.35;3.03;;;;;;;31.35;32.76;94459.25;4941278;29;20027;-76
2021/08/17 07:51:17;;;;;;;2.75;2.55;;;;;;;31.64;32.49;94456.00;4942072;29;20023;-76
2021/08/17 07:53:42;;;;;;;3.28;2.97;;;;;;;31.27;32.58;94455.47;4939671;29;20056;-77
2021/08/17 07:56:08;;;;;;;3.90;3.17;;;;;;;31.16;32.18;94450.72;4941205;29;20447;-76
2021/08/17 07:58:33;;;;;;;3.72;2.45;;;;;;;31.69;31.65;94453.19;4940786;28;20028;-74
2021/08/17 08:00:59;;;;;;;3.30;3.03;;;;;;;31.75;31.29;94447.38;4938660;28;20118;-76
2021/08/17 08:03:25;;;;;;;6.25;3.25;;;;;;;31.55;32.90;94449.88;4939695;29;20462;-77
2021/08/17 08:05:50;;;;;;;3.88;3.25;;;;;;;30.33;33.39;94439.03;4939144;29;20031;-81
2021/08/17 08:08:16;;;;;;;3.40;3.10;;;;;;;30.39;33.06;94445.81;4922838;29;20434;-80
2021/08/17 08:10:41;;;;;;;3.58;2.83;;;;;;;31.71;32.34;94441.06;4935691;29;20028;-77
2021/08/17 08:13:07;;;;;;;4.05;3.10;;;;;;;31.91;32.33;94442.31;4909522;29;20024;-80
2021/08/17 08:15:32;;;;;;;5.57;3.38;;;;;;;31.49;32.77;94438.50;4934279;29;20563;-76
2021/08/17 08:17:58;;;;;;;8.02;3.55;;;;;;;31.88;31.96;94435.66;4937487;28;20114;-75
2021/08/17 08:20:23;;;;;;;3.65;3.30;;;;;;;31.32;32.46;94435.78;4939403;29;20032;-78
2021/08/17 08:22:52;;;;;;;3.13;2.90;;;;;;;32.00;31.60;94436.94;4928474;29;20446;-76
2021/08/17 08:25:17;;;;;;;5.07;3.35;;;;;;;32.61;31.61;94427.69;4931741;29;20481;-75
2021/08/17 08:27:43;;;;;;;5.05;3.58;;;;;;;32.46;32.22;94431.66;4929416;29;20038;-75
2021/08/17 08:30:09;;;;;;;4.00;2.90;;;;;;;32.74;30.56;94434.72;4931557;29;20027;-76
2021/08/17 08:32:35;;;;;;;3.22;2.92;;;;;;;30.67;33.73;94425.03;4930297;29;20023;-77
2021/08/17 08:35:01;;;;;;;4.65;3.08;;;;;;;32.72;32.44;94424.31;4930873;29;20076;-74
2021/08/17 08:37:27;;;;;;;4.38;2.88;;;;;;;33.23;32.29;94425.19;4930412;29;20375;-74
2021/08/17 08:39:54;;;;;;;3.80;3.10;;;;;;;33.01;30.08;94423.53;4930848;29;20023;-76
2021/08/17 08:42:20;;;;;;;3.00;2.80;;;;;;;33.12;30.81;94427.47;4935188;29;20469;-78
2021/08/17 08:44:45;;;;;;;3.35;3.05;;;;;;;33.50;30.74;94418.50;4929332;29;20044;-76
2021/08/17 08:47:10;;;;;;;3.40;3.10;;;;;;;33.01;31.65;94420.09;4930533;29;20036;-76
2021/08/17 08:49:36;;;;;;;4.95;3.72;;;;;;;33.10;29.66;94424.31;4914745;29;20059;-77
2021/08/17 08:52:02;;;;;;;4.38;3.97;;;;;;;33.35;30.85;94417.19;4913627;29;20028;-75
2021/08/17 08:54:27;;;;;;;4.30;3.55;;;;;;;32.46;30.70;94412.09;4930803;29;20059;-75
2021/08/17 08:56:53;;;;;;;4.18;3.83;;;;;;;33.47;30.82;94411.88;4929932;29;20050;-77
2021/08/17 08:59:18;;;;;;;4.40;3.38;;;;;;;33.42;30.79;94409.41;4929860;29;20577;-77
2021/08/17 09:01:47;;;;;;;4.78;3.30;;;;;;;32.42;30.24;94406.56;4928621;29;20417;-77
2021/08/17 09:04:14;;;;;;;4.95;3.05;;;;;;;33.07;29.84;94402.66;4937593;29;20544;-77
2021/08/17 09:06:40;;;;;;;4.57;3.35;;;;;;;33.42;30.20;94406.72;4920600;29;20496;-77
2021/08/17 09:09:16;;;;;;;6.45;3.38;;;;;;;33.17;30.52;94395.03;4936214;29;20028;-78
2021/08/17 09:11:46;;;;;;;3.70;3.20;;;;;;;32.86;30.40;94389.97;4905223;29;20047;-78
2021/08/17 09:14:31;;;;;;;5.28;3.10;;;;;;;32.91;30.84;94390.91;4931466;29;20032;-77
2021/08/17 09:17:10;;;;;;;6.50;3.42;;;;;;;32.69;30.56;94383.91;4932388;29;20048;-79
2021/08/17 09:19:35;;;;;;;6.97;4.00;;;;;;;33.67;30.60;94384.25;4922517;29;20042;-77
2021/08/17 09:22:15;;;;;;;5.32;3.60;;;;;;;32.88;29.46;94371.63;4932665;29;20542;-81
2021/08/17 09:24:42;;;;;;;7.13;3.60;;;;;;;32.95;31.45;94381.06;4913316;29;20051;-79
2021/08/17 09:27:13;;;;;;;5.30;3.35;;;;;;;32.91;30.27;94372.13;4917943;29;20031;-78
2021/08/17 09:29:39;;;;;;;4.13;3.15;;;;;;;33.77;29.69;94367.72;4937443;29;20028;-77
2021/08/17 09:32:15;;;;;;;8.85;3.58;;;;;;;33.80;28.94;94371.66;4936221;29;20035;-75
2021/08/17 09:34:42;;;;;;;4.07;3.70;;;;;;;33.92;29.65;94364.41;4937649;29;20409;-76
2021/08/17 09:37:10;;;;;;;9.93;3.67;;;;;;;32.62;31.36;94362.97;4935376;29;20035;-76
2021/08/17 09:39:45;;;;;;;8.43;3.60;;;;;;;33.87;29.72;94358.47;4935899;29;20415;-78
2021/08/17 09:42:21;;;;;;;4.88;3.33;;;;;;;34.00;29.63;94356.59;4927227;29;20040;-76
2021/08/17 09:45:17;;;;;;;4.95;3.67;;;;;;;33.34;29.51;94357.31;4934675;29;20362;-79
2021/08/17 09:47:46;;;;;;;4.18;3.78;;;;;;;34.63;29.16;94353.34;4933286;29;20436;-77
2021/08/17 09:50:24;;;;;;;4.55;3.88;;;;;;;33.84;29.41;94354.50;4929644;29;20024;-75
2021/08/17 09:52:51;;;;;;;4.10;3.40;;;;;;;33.80;29.47;94359.00;4897023;29;20409;-79
2021/08/17 09:55:20;;;;;;;3.85;3.55;;;;;;;34.50;29.41;94350.97;4929644;29;20032;-76
2021/08/17 09:57:46;;;;;;;4.53;4.07;;;;;;;34.67;29.99;94346.19;4927851;29;20032;-78
2021/08/17 10:00:16;;;;;;;3.88;3.58;;;;;;;33.38;28.72;94352.84;4912951;29;20537;-81
2021/08/17 10:02:44;;;;;;;5.70;4.07;;;;;;;33.97;29.58;94341.91;4890526;29;20127;-76
2021/08/17 10:05:10;;;;;;;5.78;3.78;;;;;;;34.69;29.54;94340.44;4891136;29;20092;-78
2021/08/17 10:07:37;;;;;;;6.10;4.00;;;;;;;34.24;29.01;94337.81;4889341;29;20020;-76
2021/08/17 10:10:03;;;;;;;4.35;4.05;;;;;;;34.26;27.85;94341.75;4874908;29;20048;-79
2021/08/17 10:12:28;;;;;;;4.60;4.20;;;;;;;34.72;28.19;94331.69;4895760;29;20058;-76
2021/08/17 10:14:54;;;;;;;4.13;3.83;;;;;;;35.04;28.27;94335.34;4885565;29;20084;-77
2021/08/17 10:17:19;;;;;;;6.20;4.60;;;;;;;34.90;27.81;94333.78;4868343;29;20037;-79
2021/08/17 10:19:45;;;;;;;5.30;4.82;;;;;;;33.60;28.10;94326.72;4894167;29;20029;-80
2021/08/17 10:22:10;;;;;;;5.38;4.97;;;;;;;34.56;27.76;94326.19;4898659;29;20024;-80
2021/08/17 10:24:43;;;;;;;5.97;5.30;;;;;;;34.36;27.82;94324.38;4899272;29;20035;-78
2021/08/17 10:27:24;;;;;;;4.90;4.45;;;;;;;35.05;28.47;94320.78;4905074;29;20589;-75
2021/08/17 10:30:06;;;;;;;8.77;4.90;;;;;;;35.05;28.94;94323.47;4893489;29;20056;-76
2021/08/17 10:32:48;;;;;;;5.45;4.95;;;;;;;34.95;27.29;94322.03;4888896;29;20029;-76
2021/08/17 10:35:35;;;;;;;5.25;4.80;;;;;;;34.76;27.84;94317.22;4896169;29;20036;-75
2021/08/17 10:38:09;;;;;;;6.90;6.30;;;;;;;34.67;27.11;94318.47;4895071;29;20037;-76
2021/08/17 10:43:20;;;;;;;6.10;5.60;;;;;;;35.25;28.33;94322.56;4895798;29;20691;-77
2021/08/17 10:45:53;;;;;;;6.32;5.93;;;;;;;35.47;27.92;94313.94;4901449;29;20498;-75
2021/08/17 10:48:43;;;;;;;7.45;6.95;;;;;;;35.63;27.99;94314.00;4904625;29;20036;-76
2021/08/17 10:51:09;;;;;;;7.13;5.18;;;;;;;34.89;26.89;94307.22;4896052;29;20052;-75
2021/08/17 10:53:38;;;;;;;7.10;6.50;;;;;;;35.16;27.21;94311.13;4893320;29;20093;-75
2021/08/17 10:56:13;;;;;;;;;;;;;;;35.33;28.23;94311.63;4896861;29;20403;-76
2021/08/17 10:58:39;;;;;;;7.78;7.05;;;;;;;34.72;27.40;94310.94;4894454;29;19915;-75
2021/08/17 11:01:05;;;;;;;10.35;9.60;;;;;;;34.91;27.16;94304.97;4907931;29;20048;-75
2021/08/17 11:03:43;;;;;;;10.90;9.60;;;;;;;34.87;28.14;94310.25;4932102;29;20032;-75
2021/08/17 11:06:08;;;;;;;;;;;;;;;34.88;27.93;94305.66;4934130;29;20036;-74
2021/08/17 11:08:36;;;;;;;9.00;8.30;;;;;;;35.25;28.51;94296.41;4933406;29;19915;-76
2021/08/17 11:11:04;;;;;;;10.13;9.20;;;;;;;35.28;29.23;94297.63;4915608;29;20032;-75
2021/08/17 11:13:29;;;;;;;17.13;15.45;;;;;;;35.21;26.68;94292.03;4933381;29;20083;-78
2021/08/17 11:16:08;;;;;;;14.00;12.77;;;;;;;34.87;27.82;94288.69;4931665;29;20068;-76
2021/08/17 11:18:56;;;;;;;9.90;9.18;;;;;;;35.25;28.71;94290.22;4933362;29;20106;-74
2021/08/17 11:21:52;;;;;;;10.48;9.57;;;;;;;35.07;26.82;94275.41;4933647;29;20028;-76
2021/08/17 11:24:27;;;;;;;9.70;8.90;;;;;;;35.31;27.89;94280.75;4923306;29;20039;-76
2021/08/17 11:27:05;;;;;;;13.48;10.50;;;;;;;35.83;27.91;94278.75;4916379;29;20201;-75
2021/08/17 11:29:40;;;;;;;13.15;12.18;;;;;;;35.33;26.83;94270.41;4932409;29;20028;-78
2021/08/17 11:32:33;;;;;;;12.27;11.27;;;;;;;35.00;27.02;94275.97;4932153;29;20398;-80
2021/08/17 11:35:06;;;;;;;13.13;11.50;;;;;;;35.39;26.75;94271.72;4913459;29;20035;-77
2021/08/17 11:37:33;;;;;;;10.35;9.45;;;;;;;35.81;27.54;94267.50;4931294;29;20028;-75
2021/08/17 11:39:59;;;;;;;10.82;10.02;;;;;;;35.69;26.59;94258.69;4927032;29;20054;-79
2021/08/17 11:42:26;;;;;;;11.90;10.80;;;;;;;35.48;27.11;94261.59;4931495;29;20032;-76
2021/08/17 11:45:09;;;;;;;11.13;10.13;;;;;;;35.97;27.06;94260.19;4932019;29;20035;-74
2021/08/17 11:47:34;;;;;;;10.60;9.52;;;;;;;35.78;27.17;94252.00;4933048;29;20035;-75
2021/08/17 11:50:05;;;;;;;8.25;7.53;;;;;;;36.19;27.62;94256.13;4931089;29;20042;-75
2021/08/17 11:52:44;;;;;;;8.48;7.15;;;;;;;36.25;26.25;94251.28;4933050;29;20409;-75
2021/08/17 11:55:12;;;;;;;8.88;7.28;;;;;;;34.60;27.90;94243.66;4931613;29;20087;-78
2021/08/17 11:57:42;;;;;;;8.52;7.72;;;;;;;35.64;27.03;94240.84;4932465;29;20031;-76
2021/08/17 12:00:09;;;;;;;7.22;6.53;;;;;;;34.99;27.96;94230.56;4915174;29;20461;-75
2021/08/17 12:02:34;;;;;;;8.70;7.18;;;;;;;35.75;27.32;94235.75;4931189;29;20055;-74
2021/08/17 12:05:01;;;;;;;7.25;6.75;;;;;;;36.41;26.96;94231.19;4933076;29;20024;-74
2021/08/17 12:07:28;;;;;;;6.70;6.20;;;;;;;35.78;26.48;94227.75;4898088;29;20032;-75
2021/08/17 12:09:54;;;;;;;8.30;7.70;;;;;;;35.48;26.62;94229.25;4932601;29;20576;-75
2021/08/17 12:12:40;;;;;;;8.90;7.78;;;;;;;35.76;26.79;94227.31;4930856;29;20514;-73
2021/08/17 12:15:11;;;;;;;8.40;7.63;;;;;;;35.43;27.32;94226.78;4931601;29;20027;-75
2021/08/17 12:17:37;;;;;;;8.30;7.53;;;;;;;35.76;27.85;94221.91;4932177;29;20090;-73
2021/08/17 12:20:04;;;;;;;8.48;7.75;;;;;;;35.24;26.87;94223.97;4930868;29;20028;-73
2021/08/17 12:22:32;;;;;;;8.30;6.97;;;;;;;35.47;27.50;94222.28;4932108;29;20039;-75
2021/08/17 12:24:57;;;;;;;7.60;7.03;;;;;;;35.01;27.62;94220.22;4913462;29;20114;-71
2021/08/17 12:27:27;;;;;;;9.02;8.15;;;;;;;35.07;27.38;94213.44;4931706;29;20028;-75
2021/08/17 12:29:53;;;;;;;9.35;8.50;;;;;;;35.44;27.24;94209.50;4929867;29;20027;-75
2021/08/17 12:32:26;;;;;;;9.95;8.48;;;;;;;35.42;27.18;94206.34;4931551;29;20524;-74
2021/08/17 12:34:52;;;;;;;8.65;8.05;;;;;;;35.32;27.30;94204.19;4914866;29;20039;-74
2021/08/17 12:37:28;;;;;;;9.13;8.10;;;;;;;35.64;28.45;94203.09;4912517;29;20417;-73
2021/08/17 12:39:54;;;;;;;10.40;9.48;;;;;;;35.81;27.11;94200.06;4890446;29;20516;-74
2021/08/17 12:42:20;;;;;;;9.93;9.13;;;;;;;35.96;26.70;94196.59;4914946;29;20516;-72
2021/08/17 12:44:45;;;;;;;10.57;9.63;;;;;;;36.18;26.78;94191.72;4931455;29;20028;-74
2021/08/17 12:47:11;;;;;;;13.13;10.23;;;;;;;35.72;27.12;94190.59;4912805;29;20131;-74
2021/08/17 12:50:00;;;;;;;9.27;8.57;;;;;;;35.44;26.83;94183.34;4924047;29;20043;-74
2021/08/17 12:52:35;;;;;;;9.18;8.27;;;;;;;35.39;27.86;94182.78;4930699;29;20043;-74
2021/08/17 12:55:20;;;;;;;10.93;9.85;;;;;;;35.48;27.65;94171.88;4929575;29;20042;-76
2021/08/17 12:57:50;;;;;;;10.35;9.43;;;;;;;36.12;27.95;94168.84;4930483;29;20513;-73
2021/08/17 13:00:17;;;;;;;12.98;11.73;;;;;;;36.09;26.46;94173.00;4928941;29;20481;-75
2021/08/17 13:02:44;;;;;;;13.43;11.95;;;;;;;35.93;27.82;94162.22;4910250;29;20040;-74
2021/08/17 13:05:10;;;;;;;12.23;11.32;;;;;;;35.82;26.88;94163.09;4930387;29;20059;-75
2021/08/17 13:07:36;;;;;;;13.05;12.05;;;;;;;35.60;27.52;94163.72;4910855;29;20024;-74
2021/08/17 13:10:03;;;;;;;16.58;14.85;;;;;;;35.20;27.05;94161.13;4930609;29;20528;-73
2021/08/17 13:12:29;;;;;;;16.05;14.13;;;;;;;35.49;27.05;94158.03;4929176;29;20035;-75
2021/08/17 13:14:55;;;;;;;15.43;13.98;;;;;;;35.55;27.12;94145.06;4930750;29;20110;-73
2021/08/17 13:17:20;;;;;;;23.38;15.95;;;;;;;35.94;27.08;94144.13;4928755;29;20186;-74
2021/08/17 13:19:46;;;;;;;19.83;17.52;;;;;;;36.31;26.12;94144.59;4930675;29;20043;-74
2021/08/17 13:22:11;;;;;;;17.38;15.50;;;;;;;35.88;27.45;94146.31;4928415;29;20039;-76
2021/08/17 13:24:36;;;;;;;16.38;14.77;;;;;;;36.13;25.52;94135.31;4929853;29;20569;-74
2021/08/17 13:27:02;;;;;;;20.73;17.60;;;;;;;35.65;26.13;94139.19;4930848;29;20027;-74
2021/08/17 13:29:28;;;;;;;20.42;18.25;;;;;;;35.39;26.74;94135.06;4928512;29;20507;-75
2021/08/17 13:31:54;;;;;;;18.73;16.95;;;;;;;35.82;26.74;94130.75;4930731;29;20083;-74
2021/08/17 13:34:21;;;;;;;18.05;16.38;;;;;;;35.93;26.18;94124.44;4928455;29;20481;-76
2021/08/17 13:36:47;;;;;;;18.60;16.80;;;;;;;36.00;25.58;94123.03;4914992;29;20102;-74
2021/08/17 13:39:12;;;;;;;20.25;16.90;;;;;;;35.71;26.53;94125.09;4929229;29;20035;-73
2021/08/17 13:41:38;;;;;;;18.05;16.25;;;;;;;36.01;26.38;94120.00;4929794;29;20030;-73
2021/08/17 13:44:05;;;;;;;17.88;16.17;;;;;;;36.12;26.61;94115.69;4905935;29;20027;-75
2021/08/17 13:46:30;;;;;;;17.85;16.33;;;;;;;35.78;25.66;94113.69;4912878;29;20486;-75
2021/08/17 13:48:56;;;;;;;16.52;14.98;;;;;;;35.29;25.23;94105.16;4913866;29;20035;-75
2021/08/17 13:51:23;;;;;;;18.55;16.75;;;;;;;35.74;26.12;94116.28;4922597;29;20031;-72
2021/08/17 13:53:49;;;;;;;18.15;16.30;;;;;;;35.80;25.87;94111.44;4932883;29;20110;-74
2021/08/17 13:56:16;;;;;;;17.85;15.25;;;;;;;35.76;25.40;94108.66;4936904;28;20031;-74
2021/08/17 13:58:42;;;;;;;17.20;15.60;;;;;;;35.70;25.25;94107.38;4941489;28;20437;-75
2021/08/17 14:01:07;;;;;;;15.95;14.35;;;;;;;35.12;24.58;94102.81;4943513;29;20048;-77
2021/08/17 14:03:33;;;;;;;16.08;14.57;;;;;;;35.25;24.76;94109.69;4932706;29;20465;-75
2021/08/17 14:05:59;;;;;;;16.55;14.10;;;;;;;35.49;24.36;94109.50;4943821;29;20050;-73
2021/08/17 14:08:25;;;;;;;14.20;12.95;;;;;;;35.65;25.36;94106.81;4932571;29;20059;-76
2021/08/17 14:10:51;;;;;;;14.48;13.15;;;;;;;35.63;25.79;94109.09;4942945;29;20036;-74
2021/08/17 14:13:17;;;;;;;13.60;12.45;;;;;;;35.66;24.73;94103.00;4941000;29;20031;-75
2021/08/17 14:15:42;;;;;;;15.95;14.15;;;;;;;35.04;24.38;94098.31;4943278;29;20098;-77
2021/08/17 14:18:07;;;;;;;14.57;13.15;;;;;;;35.15;24.26;94100.19;4941324;28;20028;-76
2021/08/17 14:20:33;;;;;;;13.60;12.32;;;;;;;35.48;24.87;94101.78;4942351;29;20028;-76
2021/08/17 14:23:00;;;;;;;16.77;14.18;;;;;;;35.53;25.33;94096.91;4943028;29;20023;-75
2021/08/17 14:25:26;;;;;;;18.25;14.63;;;;;;;35.44;25.24;94094.41;4938719;29;20046;-76
2021/08/17 14:27:54;;;;;;;14.27;12.98;;;;;;;35.45;24.27;94095.94;4943436;29;20683;-74
2021/08/17 14:30:19;;;;;;;11.15;9.38;;;;;;;35.66;22.94;94097.63;4941427;29;20102;-76
2021/08/17 14:32:46;;;;;;;9.98;8.68;;;;;;;35.64;22.51;94100.66;4941737;29;20114;-79
2021/08/17 14:35:11;;;;;;;8.85;7.70;;;;;;;35.62;21.08;94092.13;4940610;29;20139;-76
2021/08/17 14:37:37;;;;;;;10.18;8.43;;;;;;;35.89;21.47;94101.25;4943883;29;20031;-74
2021/08/17 14:40:03;;;;;;;12.38;11.43;;;;;;;35.90;23.22;94095.47;4931015;29;20062;-75
2021/08/17 14:42:32;;;;;;;14.40;13.02;;;;;;;35.68;23.83;94093.44;4940216;29;20027;-75
2021/08/17 14:44:57;;;;;;;17.15;14.60;;;;;;;35.52;24.02;94092.63;4944218;29;20526;-76
2021/08/17 14:47:23;;;;;;;18.70;14.32;;;;;;;35.30;24.79;94059.00;4939480;29;20085;-74
2021/08/17 14:49:48;;;;;;;17.27;15.68;;;;;;;35.32;25.81;94094.44;4936439;29;20031;-75
2021/08/17 14:52:15;;;;;;;17.75;15.98;;;;;;;35.63;25.24;94096.41;4938298;29;20464;-76
2021/08/17 14:54:41;;;;;;;17.02;15.52;;;;;;;35.73;25.45;94101.28;4940787;29;20177;-75
2021/08/17 14:57:09;;;;;;;17.40;15.73;;;;;;;35.72;24.82;94102.41;4932834;29;20565;-74
2021/08/17 14:59:35;;;;;;;14.85;11.73;;;;;;;35.58;24.22;94102.03;4917489;29;20024;-76
2021/08/17 15:02:01;;;;;;;14.15;12.80;;;;;;;35.39;24.41;94099.25;4934331;29;20046;-74
2021/08/17 15:04:26;;;;;;;16.13;14.52;;;;;;;34.92;26.28;94099.97;4939926;29;20024;-76
2021/08/17 15:06:52;;;;;;;15.73;13.27;;;;;;;34.47;28.14;94106.72;4933408;29;20410;-74
2021/08/17 15:09:17;;;;;;;16.02;14.05;;;;;;;34.27;28.31;94105.78;4938059;29;20418;-75
2021/08/17 15:11:43;;;;;;;15.30;13.80;;;;;;;34.30;28.02;94103.19;4938153;29;20035;-75
2021/08/17 15:14:08;;;;;;;16.25;14.38;;;;;;;34.33;28.26;94112.47;4932789;29;20027;-75
2021/08/17 15:16:34;;;;;;;16.55;14.90;;;;;;;34.08;28.24;94105.56;4942205;29;20051;-75
2021/08/17 15:19:01;;;;;;;16.05;14.35;;;;;;;34.04;28.34;94102.78;4941868;29;20546;-76
2021/08/17 15:21:26;;;;;;;11.40;10.43;;;;;;;33.66;29.41;94110.41;4925357;29;20023;-76
2021/08/17 15:23:52;;;;;;;9.02;8.27;;;;;;;33.73;29.08;94114.13;4935963;29;20028;-77
2021/08/17 15:26:17;;;;;;;8.45;7.65;;;;;;;33.57;29.89;94113.19;4926101;29;20135;-78
2021/08/17 15:28:43;;;;;;;7.25;6.65;;;;;;;33.23;30.51;94114.38;4933829;29;20184;-74
2021/08/17 15:31:09;;;;;;;6.68;5.97;;;;;;;33.08;31.25;94119.59;4928408;29;20518;-75
2021/08/17 15:33:35;;;;;;;6.75;6.20;;;;;;;33.09;31.24;94121.19;4912843;29;20596;-75
2021/08/17 15:36:01;;;;;;;9.05;5.90;;;;;;;33.02;31.55;94120.91;4932718;29;20032;-75
2021/08/17 15:38:26;;;;;;;6.72;6.07;;;;;;;32.92;31.55;94108.69;4932098;29;20038;-76
2021/08/17 15:40:53;;;;;;;9.23;6.38;;;;;;;32.91;30.88;94115.19;4932959;29;20039;-80
2021/08/17 15:43:19;;;;;;;7.97;6.20;;;;;;;32.91;31.09;94120.56;4931284;29;20038;-76
2021/08/17 15:45:44;;;;;;;5.60;5.20;;;;;;;33.14;30.97;94115.59;4933044;29;20028;-76
2021/08/17 15:48:09;;;;;;;6.40;5.68;;;;;;;33.05;30.46;94118.34;4931557;29;20035;-77
2021/08/17 15:50:35;;;;;;;6.82;5.72;;;;;;;32.87;31.46;94117.75;4932724;29;20496;-81
2021/08/17 15:53:01;;;;;;;6.55;5.93;;;;;;;32.58;30.91;94123.25;4930758;29;20474;-79
2021/08/17 15:55:26;;;;;;;6.30;5.35;;;;;;;32.59;30.76;94113.28;4914155;29;20108;-76
2021/08/17 15:57:52;;;;;;;6.43;5.85;;;;;;;32.50;32.20;94113.31;4932185;29;20046;-75
2021/08/17 16:00:24;;;;;;;5.85;5.35;;;;;;;32.54;31.30;94119.59;4930888;29;20449;-76
2021/08/17 16:02:50;;;;;;;10.13;5.70;;;;;;;32.44;32.10;94119.22;4932043;29;20095;-76
2021/08/17 16:05:16;;;;;;;5.28;4.85;;;;;;;32.49;31.91;94119.03;4931229;29;20032;-76
2021/08/17 16:07:46;;;;;;;8.15;5.45;;;;;;;32.38;31.77;94124.00;4932225;29;20553;-76
2021/08/17 16:10:14;;;;;;;6.28;5.22;;;;;;;32.01;32.37;94122.97;4931529;29;20462;-80
2021/08/17 16:12:43;;;;;;;5.03;4.63;;;;;;;31.95;32.31;94123.50;4935929;29;20480;-83
2021/08/17 16:15:12;;;;;;;7.60;5.22;;;;;;;31.86;32.45;94118.16;4931252;29;20191;-74
2021/08/17 16:17:43;;;;;;;7.78;5.35;;;;;;;31.83;32.55;94121.50;4931025;29;20223;-79
2021/08/17 16:20:09;;;;;;;6.32;5.00;;;;;;;31.82;32.51;94123.38;4932250;29;20044;-74
2021/08/17 16:22:34;;;;;;;5.15;4.80;;;;;;;31.78;32.77;94116.34;4929934;29;20047;-76
2021/08/17 16:25:00;;;;;;;13.13;5.35;;;;;;;31.68;33.16;94122.84;4931707;29;20468;-82
2021/08/17 16:27:26;;;;;;;5.35;4.68;;;;;;;31.66;33.07;94116.25;4931036;29;20020;-76
2021/08/17 16:29:51;;;;;;;5.40;4.78;;;;;;;31.54;32.87;94113.44;4931748;29;20604;-77
2021/08/17 16:32:17;;;;;;;5.50;5.10;;;;;;;31.47;32.59;94113.16;4931104;29;20039;-79
2021/08/17 16:34:43;;;;;;;7.95;5.18;;;;;;;31.51;33.31;94117.56;4928828;29;20042;-76